Terminal Aerodrome Forecast
Issued by NWS Memphis, TN

Home | Current Version | Previous Version | Text Only | Print | Product List | Glossary On
Versions: 1 2 3 4 5 6 7 8 9 10 11 12 13
000
FTUS44 KMEG 301700 RRA
TAFJBR
TAF
KJBR 301741Z 3018/3118 20008KT P6SM SCT060 BKN150
     FM310600 30003KT P6SM VCSH SCT040 OVC090
     FM311200 18008KT P6SM -RA BKN040 OVC090=

USA.gov is the U.S. government's official web portal to all federal, state and local government web resources and services.